Time;durP1;ratioP1;P1;durP2;ratioP2;P2;SDS_P1;SDS_P2;PMS_P1;PMS_P2;Temp;Humidity;BMP_temperature;BMP_pressure;BME280_temperature;BME280_humidity;BME280_pressure;Samples;Min_cycle;Max_cycle;Signal;HPM_P1;HPM_P2
2022/10/02 00:07:09;;;;;;;1999.90;999.90;;;;;;;10.48;100.00;98040.75;5291838;23;20046;-83
2022/10/02 00:09:59;;;;;;;1999.90;999.90;;;;;;;10.58;100.00;98037.09;5017797;28;20022;-85
2022/10/02 00:12:28;;;;;;;1999.90;999.90;;;;;;;10.61;100.00;98056.47;5018258;28;20027;-77
2022/10/02 00:15:01;;;;;;;1999.90;999.90;;;;;;;10.37;100.00;98022.06;5018684;28;20061;-77
2022/10/02 00:17:36;;;;;;;1999.90;999.90;;;;;;;10.61;100.00;98064.69;5018210;28;20038;-85
2022/10/02 00:20:11;;;;;;;1999.90;999.90;;;;;;;10.39;100.00;98034.31;5017224;28;20034;-86
2022/10/02 00:22:56;;;;;;;1999.90;999.90;;;;;;;10.52;100.00;98047.28;5017148;28;20077;-87
2022/10/02 00:25:52;;;;;;;1999.90;999.90;;;;;;;10.35;100.00;98038.72;5016805;28;20010;-83
2022/10/02 00:28:27;;;;;;;;;;;;;;;10.68;100.00;98091.69;5017860;28;20007;-83
2022/10/02 00:31:13;;;;;;;1999.90;999.90;;;;;;;10.31;100.00;98059.56;5016653;28;19902;-85
2022/10/02 00:34:20;;;;;;;1999.90;999.90;;;;;;;10.57;100.00;98117.50;5017271;28;20038;-87
2022/10/02 00:37:19;;;;;;;1999.90;999.90;;;;;;;10.52;100.00;98101.97;5016528;28;20030;-87
2022/10/02 00:40:27;;;;;;;1999.90;999.90;;;;;;;10.64;100.00;98101.56;5016828;28;20038;-83
2022/10/02 00:42:52;;;;;;;1999.90;999.90;;;;;;;10.60;100.00;98095.84;5015877;28;20030;-83
2022/10/02 00:46:25;;;;;;;1999.90;999.90;;;;;;;10.45;100.00;98060.50;5017228;28;20009;-83
2022/10/02 00:49:32;;;;;;;1999.90;999.90;;;;;;;10.67;100.00;98090.03;5016853;28;20083;-79
2022/10/02 00:52:23;;;;;;;1999.90;999.90;;;;;;;10.61;100.00;98097.50;5017481;28;20021;-79
2022/10/02 00:54:54;;;;;;;1999.90;999.90;;;;;;;10.61;100.00;98081.09;5017085;28;20065;-81
2022/10/02 00:57:28;;;;;;;1999.90;999.90;;;;;;;10.89;100.00;98082.09;5017620;28;20034;-80
2022/10/02 01:00:00;;;;;;;1999.90;999.90;;;;;;;10.69;100.00;98083.16;5017707;28;20023;-80
2022/10/02 01:02:35;;;;;;;1999.90;999.90;;;;;;;10.61;100.00;98089.28;5016774;28;20044;-85
2022/10/02 01:05:06;;;;;;;1999.90;999.90;;;;;;;10.15;100.00;98058.09;5017431;28;20033;-83
2022/10/02 01:07:35;;;;;;;1999.90;999.90;;;;;;;10.10;100.00;98028.88;5018077;28;20050;-85
2022/10/02 01:10:00;;;;;;;1999.90;999.90;;;;;;;10.44;100.00;98075.25;5017821;28;20021;-84
2022/10/02 01:12:27;;;;;;;1999.90;999.90;;;;;;;10.62;100.00;98079.13;5017152;28;20555;-79
2022/10/02 01:14:53;;;;;;;1999.90;999.90;;;;;;;10.62;100.00;98058.06;5017247;28;20039;-80
2022/10/02 01:17:31;;;;;;;1999.90;999.90;;;;;;;10.66;100.00;98078.28;5017511;28;20030;-87
2022/10/02 01:20:04;;;;;;;1999.90;999.90;;;;;;;10.21;100.00;98048.75;5016933;28;20030;-82
2022/10/02 01:22:48;;;;;;;1999.90;999.90;;;;;;;10.51;100.00;98081.19;5016333;28;20049;-85
2022/10/02 01:25:14;;;;;;;1999.90;999.90;;;;;;;10.28;100.00;98068.34;5014391;28;20133;-84
2022/10/02 01:27:40;;;;;;;1999.90;999.90;;;;;;;10.49;100.00;98105.31;5014880;28;20022;-84
2022/10/02 01:30:11;;;;;;;1999.90;999.90;;;;;;;10.39;100.00;98061.66;5013075;28;20029;-86
2022/10/02 01:32:41;;;;;;;1999.90;999.90;;;;;;;10.51;100.00;98089.41;5012913;28;20029;-85
2022/10/02 01:35:08;;;;;;;1999.90;999.90;;;;;;;10.53;100.00;98106.31;5013716;28;20048;-84
2022/10/02 01:37:37;;;;;;;1999.90;999.90;;;;;;;10.44;100.00;98105.34;5013141;28;20023;-84
2022/10/02 01:40:08;;;;;;;1999.90;999.90;;;;;;;10.17;100.00;98053.16;5013889;28;20022;-86
2022/10/02 01:42:35;;;;;;;1999.90;999.90;;;;;;;10.22;100.00;98050.38;5014005;28;20023;-83
2022/10/02 01:45:05;;;;;;;1999.90;999.90;;;;;;;10.37;100.00;98080.25;5013164;28;20440;-86
2022/10/02 01:47:34;;;;;;;1999.90;999.90;;;;;;;10.42;100.00;98077.47;5014705;28;20030;-87
2022/10/02 01:50:41;;;;;;;1999.90;999.90;;;;;;;10.52;100.00;98099.25;5014423;28;20014;-87
2022/10/02 01:53:17;;;;;;;1999.90;999.90;;;;;;;10.07;100.00;98072.38;5013920;28;20026;-85
2022/10/02 01:56:00;;;;;;;;;;;;;;;10.41;100.00;98116.84;5014019;28;20027;-85
2022/10/02 01:58:35;;;;;;;1999.90;999.90;;;;;;;10.34;100.00;98105.44;5012679;28;19913;-84
2022/10/02 02:01:19;;;;;;;1999.90;999.90;;;;;;;9.92;100.00;98081.53;5011336;28;20109;-83
2022/10/02 02:04:24;;;;;;;1999.90;999.90;;;;;;;10.48;100.00;98109.13;5012864;28;20013;-85
2022/10/02 02:07:17;;;;;;;1999.90;999.90;;;;;;;9.87;100.00;98064.34;5013787;28;20062;-85
2022/10/02 02:10:29;;;;;;;1999.90;999.90;;;;;;;10.12;100.00;98105.09;5013020;28;20026;-84
2022/10/02 02:13:15;;;;;;;1999.90;999.90;;;;;;;10.08;100.00;98091.22;5008859;28;20049;-86
2022/10/02 02:16:05;;;;;;;1999.90;999.90;;;;;;;9.86;100.00;98081.88;5016148;28;20098;-86
2022/10/02 02:18:55;;;;;;;1999.90;999.90;;;;;;;10.50;100.00;98106.09;5017271;28;20053;-87
2022/10/02 02:21:39;;;;;;;1999.90;999.90;;;;;;;10.07;100.00;98091.50;5019082;28;20028;-84
2022/10/02 02:24:11;;;;;;;1999.90;999.90;;;;;;;9.82;100.00;98114.41;5012701;28;20019;-78
2022/10/02 02:26:38;;;;;;;1999.90;999.90;;;;;;;9.92;100.00;98121.69;5000584;28;20042;-85
2022/10/02 02:29:08;;;;;;;1999.90;999.90;;;;;;;9.92;100.00;98105.31;4998544;28;20086;-86
2022/10/02 02:31:48;;;;;;;1999.90;999.90;;;;;;;10.17;100.00;98154.28;4997830;28;20057;-86
2022/10/02 02:34:19;;;;;;;1999.90;999.90;;;;;;;10.21;100.00;98136.22;4997350;28;20147;-84
2022/10/02 02:36:50;;;;;;;1999.90;999.90;;;;;;;10.34;100.00;98162.88;5023061;28;20029;-88
2022/10/02 02:39:22;;;;;;;1999.90;999.90;;;;;;;9.96;100.00;98126.28;5039137;28;20029;-86
2022/10/02 02:41:54;;;;;;;1999.90;999.90;;;;;;;9.68;100.00;98106.03;5037038;28;20036;-87
2022/10/02 02:44:29;;;;;;;1999.90;999.90;;;;;;;9.50;100.00;98112.19;5035546;28;20018;-85
2022/10/02 02:47:22;;;;;;;1999.90;999.90;;;;;;;9.76;100.00;98107.34;5035715;28;20033;-86
2022/10/02 02:50:11;;;;;;;1999.90;999.90;;;;;;;9.79;100.00;98122.34;5036326;28;20048;-82
2022/10/02 02:52:47;;;;;;;1999.90;999.90;;;;;;;9.53;100.00;98136.22;5035631;28;20034;-84
2022/10/02 02:55:21;;;;;;;1999.90;999.90;;;;;;;9.73;100.00;98151.63;5035483;28;20022;-82
2022/10/02 02:58:18;;;;;;;1999.90;999.90;;;;;;;9.79;100.00;98166.88;5037713;28;20037;-82
2022/10/02 03:00:43;;;;;;;;;;;;;;;9.68;100.00;98166.13;5037282;28;20018;-83
2022/10/02 03:03:09;;;;;;;;;;;;;;;9.63;100.00;98168.09;5037095;28;19917;-83
2022/10/02 03:05:41;;;;;;;1999.90;999.90;;;;;;;9.69;100.00;98175.16;5037204;28;20367;-85
2022/10/02 03:08:21;;;;;;;1999.90;999.90;;;;;;;9.61;100.00;98127.44;5037352;28;20061;-89
2022/10/02 03:11:41;;;;;;;1999.90;999.90;;;;;;;9.90;100.00;98181.28;5036731;28;20074;-85
2022/10/02 03:14:44;;;;;;;1999.90;999.90;;;;;;;9.86;100.00;98178.31;5020467;28;20038;-82
2022/10/02 03:17:25;;;;;;;1999.90;999.90;;;;;;;9.95;100.00;98181.25;5017442;28;20033;-88
2022/10/02 03:20:06;;;;;;;1999.90;999.90;;;;;;;9.73;100.00;98175.41;5017168;28;20093;-87
2022/10/02 03:22:40;;;;;;;1999.90;999.90;;;;;;;9.92;100.00;98188.09;5031747;28;20052;-86
2022/10/02 03:25:30;;;;;;;1999.90;999.90;;;;;;;9.54;100.00;98181.53;5038750;28;20040;-84
2022/10/02 03:28:27;;;;;;;1999.90;999.90;;;;;;;9.41;100.00;98187.63;5038692;28;20033;-82
2022/10/02 03:30:55;;;;;;;1999.90;999.90;;;;;;;9.21;100.00;98148.72;5038237;28;20037;-84
2022/10/02 03:33:22;;;;;;;1999.90;999.90;;;;;;;9.42;100.00;98211.09;5038766;28;20060;-82
2022/10/02 03:35:49;;;;;;;1999.90;999.90;;;;;;;9.24;100.00;98189.09;5038620;28;20036;-86
2022/10/02 03:38:17;;;;;;;1999.90;999.90;;;;;;;9.59;100.00;98178.75;5038058;28;20044;-84
2022/10/02 03:40:42;;;;;;;1999.90;999.90;;;;;;;9.75;100.00;98192.31;5037907;28;20042;-84
2022/10/02 03:43:18;;;;;;;1999.90;999.90;;;;;;;9.62;100.00;98194.56;5038639;28;20025;-78
2022/10/02 03:45:44;;;;;;;1999.90;999.90;;;;;;;9.43;100.00;98195.53;5037817;28;20010;-86
2022/10/02 03:48:10;;;;;;;1999.90;999.90;;;;;;;9.43;100.00;98162.78;5037064;28;20044;-81
2022/10/02 03:50:38;;;;;;;1999.90;999.90;;;;;;;9.47;100.00;98185.66;5037872;28;20082;-86
2022/10/02 03:53:28;;;;;;;1999.90;999.90;;;;;;;9.47;100.00;98185.66;5036578;28;20013;-82
2022/10/02 03:56:22;;;;;;;1999.90;999.90;;;;;;;9.72;100.00;98188.22;5036753;28;20033;-84
2022/10/02 03:58:54;;;;;;;1999.90;999.90;;;;;;;9.83;100.00;98216.31;5037006;28;20034;-81
2022/10/02 04:01:31;;;;;;;1999.90;999.90;;;;;;;9.73;100.00;98197.25;5036628;28;20034;-85
2022/10/02 04:04:16;;;;;;;1999.90;999.90;;;;;;;9.46;100.00;98178.59;5035562;28;20028;-86
2022/10/02 04:06:47;;;;;;;1999.90;999.90;;;;;;;9.89;100.00;98221.47;5036534;28;20046;-86
2022/10/02 04:09:23;;;;;;;1999.90;999.90;;;;;;;9.60;100.00;98232.28;5037230;28;20037;-83
2022/10/02 04:11:57;;;;;;;1999.90;999.90;;;;;;;9.65;100.00;98248.63;5036456;28;20018;-82
2022/10/02 04:14:27;;;;;;;1999.90;999.90;;;;;;;9.45;100.00;98234.28;5034881;28;20034;-82
2022/10/02 04:17:02;;;;;;;1999.90;999.90;;;;;;;9.61;100.00;98258.50;5020390;28;20028;-85
2022/10/02 04:19:39;;;;;;;1999.90;999.90;;;;;;;9.51;100.00;98274.13;5016911;28;20342;-86
2022/10/02 04:22:28;;;;;;;1999.90;999.90;;;;;;;9.68;100.00;98271.84;5015574;28;20034;-82
2022/10/02 04:25:01;;;;;;;1999.90;999.90;;;;;;;9.38;100.00;98256.44;5014693;28;20030;-85
2022/10/02 04:27:49;;;;;;;1999.90;999.90;;;;;;;9.04;100.00;98234.47;5015502;28;20022;-86
2022/10/02 04:30:19;;;;;;;1999.90;999.90;;;;;;;9.54;100.00;98270.81;5015118;28;20085;-85
2022/10/02 04:32:46;;;;;;;1999.90;999.90;;;;;;;9.24;100.00;98222.63;5015500;28;20034;-81
2022/10/02 04:35:24;;;;;;;1999.90;999.90;;;;;;;9.61;100.00;98274.91;5017268;28;20017;-78
2022/10/02 04:37:50;;;;;;;1999.90;999.90;;;;;;;9.44;100.00;98279.06;5016916;28;20041;-85
2022/10/02 04:40:59;;;;;;;1999.90;999.90;;;;;;;9.37;100.00;98268.44;5015090;28;20058;-85
2022/10/02 04:43:56;;;;;;;1999.90;999.90;;;;;;;9.55;100.00;98276.00;5015646;28;20013;-85
2022/10/02 04:46:22;;;;;;;1999.90;999.90;;;;;;;9.37;100.00;98271.16;5015373;28;20042;-84
2022/10/02 04:49:04;;;;;;;1999.90;999.90;;;;;;;9.37;100.00;98279.34;5015159;28;20034;-85
2022/10/02 04:52:07;;;;;;;1999.90;999.90;;;;;;;9.37;100.00;98279.34;5015163;28;20080;-84
2022/10/02 04:54:54;;;;;;;1999.90;999.90;;;;;;;-144.65;100.00;64500.88;5012001;28;20055;-88
2022/10/02 04:57:26;;;;;;;1999.90;999.90;;;;;;;9.19;58.59;98426.38;5013269;28;20023;-84
2022/10/02 05:00:10;;;;;;;1999.90;999.90;;;;;;;-143.36;100.00;120538.06;5012504;28;20026;-85
2022/10/02 05:02:49;;;;;;;1999.90;999.90;;;;;;;-144.65;100.00;83876.38;5014653;28;20054;-82
2022/10/02 05:05:47;;;;;;;1999.90;999.90;;;;;;;-144.65;100.00;64500.88;5014697;28;20056;-85
2022/10/02 05:08:18;;;;;;;;;;;;;;;10.26;100.00;85810.16;5014669;28;20037;-85
2022/10/02 05:10:59;;;;;;;1999.90;999.90;;;;;;;9.31;100.00;98268.72;5014496;28;19910;-87
2022/10/02 05:13:39;;;;;;;1999.90;999.90;;;;;;;9.24;100.00;98274.50;5013589;28;20057;-86
2022/10/02 05:16:11;;;;;;;1999.90;999.90;;;;;;;9.27;100.00;98273.94;5015180;28;20030;-85
2022/10/02 05:18:59;;;;;;;1999.90;999.90;;;;;;;9.20;100.00;98281.63;5008559;28;20007;-84
2022/10/02 05:21:37;;;;;;;1999.90;999.90;;;;;;;9.24;100.00;98285.41;4994683;28;20062;-86
2022/10/02 05:24:14;;;;;;;1999.90;999.90;;;;;;;9.29;100.00;98296.31;4993644;28;20046;-87
2022/10/02 05:27:01;;;;;;;1999.90;999.90;;;;;;;9.42;100.00;98297.66;4991456;28;20034;-86
2022/10/02 05:29:52;;;;;;;1999.90;999.90;;;;;;;9.39;100.00;98307.22;4982736;28;20027;-87
2022/10/02 05:33:05;;;;;;;1999.90;999.90;;;;;;;9.39;100.00;98299.03;4992003;28;20037;-81
2022/10/02 05:35:52;;;;;;;1999.90;999.90;;;;;;;9.53;100.00;98293.75;4989844;28;20038;-83
2022/10/02 05:38:55;;;;;;;1999.90;999.90;;;;;;;9.68;100.00;98302.69;4992280;28;20047;-84
2022/10/02 05:41:25;;;;;;;1999.90;999.90;;;;;;;9.51;100.00;98272.22;4990688;28;20042;-81
2022/10/02 05:44:08;;;;;;;1999.90;999.90;;;;;;;9.52;100.00;98292.94;4991776;28;20046;-81
2022/10/02 05:46:42;;;;;;;1999.90;999.90;;;;;;;9.44;100.00;98314.56;4991929;28;20077;-84
2022/10/02 05:49:24;;;;;;;1999.90;999.90;;;;;;;8.98;100.00;98271.06;4996351;28;20086;-84
2022/10/02 05:52:10;;;;;;;1999.90;999.90;;;;;;;9.09;100.00;98310.03;4995514;28;20054;-83
2022/10/02 05:54:40;;;;;;;1999.90;999.90;;;;;;;8.99;100.00;98320.97;4995686;28;20070;-83
2022/10/02 05:57:14;;;;;;;1999.90;999.90;;;;;;;9.31;100.00;98315.13;4995483;28;20496;-84
2022/10/02 05:59:55;;;;;;;1999.90;999.90;;;;;;;9.20;100.00;98267.97;4993262;28;20039;-82
2022/10/02 06:02:43;;;;;;;1999.90;999.90;;;;;;;9.63;100.00;98316.38;4993543;28;20046;-84
2022/10/02 06:05:20;;;;;;;1999.90;999.90;;;;;;;9.89;100.00;98333.47;4993450;28;20114;-82
2022/10/02 06:07:50;;;;;;;1999.90;999.90;;;;;;;10.00;100.00;98326.03;4992844;28;20031;-84
2022/10/02 06:10:26;;;;;;;1999.90;999.90;;;;;;;10.39;100.00;98345.22;4992571;28;20035;-82
2022/10/02 06:13:06;;;;;;;1999.90;999.90;;;;;;;10.67;100.00;98330.78;4993101;28;20027;-83
2022/10/02 06:15:38;;;;;;;1999.90;999.90;;;;;;;10.91;100.00;98341.78;4996785;28;20023;-82
2022/10/02 06:18:08;;;;;;;1999.90;999.90;;;;;;;10.96;100.00;98352.69;4997691;28;20027;-84
2022/10/02 06:20:42;;;;;;;1999.90;999.90;;;;;;;11.10;100.00;98350.91;4995701;28;20412;-81
2022/10/02 06:23:42;;;;;;;1999.90;999.90;;;;;;;11.16;100.00;98355.22;4995560;28;20030;-85
2022/10/02 06:26:26;;;;;;;1999.90;999.90;;;;;;;11.28;100.00;98355.63;4996358;28;20050;-85
2022/10/02 06:28:59;;;;;;;1999.90;999.90;;;;;;;11.46;100.00;98349.44;4996924;28;20023;-85
2022/10/02 06:31:42;;;;;;;1999.90;999.90;;;;;;;11.62;100.00;98350.06;4996663;28;20022;-84
2022/10/02 06:34:12;;;;;;;1999.90;999.90;;;;;;;11.51;100.00;98363.06;5005964;28;20026;-82
2022/10/02 06:36:51;;;;;;;1999.90;999.90;;;;;;;11.85;100.00;98362.13;5033723;28;20037;-84
2022/10/02 06:39:34;;;;;;;1999.90;999.90;;;;;;;12.02;100.00;98357.00;5034883;28;20006;-85
2022/10/02 06:42:25;;;;;;;1999.90;999.90;;;;;;;12.22;100.00;98352.03;5035231;28;20033;-84
2022/10/02 06:45:02;;;;;;;1999.90;999.90;;;;;;;12.62;100.00;98367.09;5020195;28;20018;-80
2022/10/02 06:47:53;;;;;;;1999.90;999.90;;;;;;;12.98;100.00;98369.22;5031546;28;20028;-83
2022/10/02 06:50:29;;;;;;;1999.90;999.90;;;;;;;13.02;100.00;98353.78;5034673;28;20025;-81
2022/10/02 06:53:11;;;;;;;1999.90;999.90;;;;;;;13.00;100.00;98380.75;5034628;28;20060;-85
2022/10/02 06:55:59;;;;;;;1999.90;999.90;;;;;;;12.73;100.00;98381.44;5034485;28;20034;-83
2022/10/02 06:58:39;;;;;;;1999.90;999.90;;;;;;;12.63;100.00;98374.19;5030426;28;20036;-82
2022/10/02 07:01:28;;;;;;;1999.90;999.90;;;;;;;12.76;100.00;98376.19;5032029;28;20025;-83
2022/10/02 07:04:31;;;;;;;1999.90;999.90;;;;;;;12.60;100.00;98365.72;5025920;28;20033;-79
2022/10/02 07:07:18;;;;;;;1999.90;999.90;;;;;;;12.50;100.00;98363.97;5027642;28;20065;-84
2022/10/02 07:09:53;;;;;;;1999.90;999.90;;;;;;;12.71;100.00;98362.56;5035359;28;20025;-83
2022/10/02 07:12:34;;;;;;;1999.90;999.90;;;;;;;12.83;100.00;98365.63;5033752;28;20051;-79
2022/10/02 07:15:05;;;;;;;1999.90;999.90;;;;;;;13.16;100.00;98363.72;5005751;28;20034;-81
2022/10/02 07:18:03;;;;;;;1999.90;999.90;;;;;;;13.23;100.00;98363.31;5010515;28;20034;-82
2022/10/02 07:20:58;;;;;;;1999.90;999.90;;;;;;;14.36;100.00;98362.41;5011945;28;20038;-80
2022/10/02 07:23:52;;;;;;;1999.90;999.90;;;;;;;17.01;100.00;98364.69;5016762;28;20046;-81
2022/10/02 07:26:42;;;;;;;1999.90;999.90;;;;;;;18.76;100.00;98377.16;4990870;28;20019;-83
2022/10/02 07:29:26;;;;;;;1999.90;999.90;;;;;;;20.41;87.44;98386.09;4991415;28;20035;-85
2022/10/02 07:32:00;;;;;;;1999.90;999.90;;;;;;;21.56;75.82;98395.50;4991468;28;20039;-85
2022/10/02 07:34:40;;;;;;;1999.90;999.90;;;;;;;20.67;78.48;98398.47;4993161;28;20034;-83
2022/10/02 07:37:21;;;;;;;1999.90;999.90;;;;;;;19.33;83.78;98393.09;4993930;28;20038;-75
2022/10/02 07:40:10;;;;;;;1999.90;999.90;;;;;;;18.29;88.06;98400.56;5012990;28;20037;-79
2022/10/02 07:42:42;;;;;;;1999.90;999.90;;;;;;;18.86;84.25;98396.13;5013341;28;20017;-77
2022/10/02 07:45:14;;;;;;;1999.90;999.90;;;;;;;17.74;90.37;98395.94;5013577;28;20053;-76
2022/10/02 07:48:13;;;;;;;1999.90;999.90;;;;;;;16.65;98.77;98405.66;5014461;28;20479;-79
2022/10/02 07:51:03;;;;;;;1999.90;999.90;;;;;;;16.45;100.00;98395.19;5016131;28;20037;-78
2022/10/02 07:53:44;;;;;;;1999.90;999.90;;;;;;;16.34;100.00;98388.34;5013682;28;20037;-77
2022/10/02 07:56:18;;;;;;;1999.90;999.90;;;;;;;15.68;100.00;98390.25;5024861;28;20152;-82
2022/10/02 07:58:43;;;;;;;1999.90;999.90;;;;;;;16.15;100.00;98396.09;5026114;28;20055;-79
2022/10/02 08:01:31;;;;;;;1999.90;999.90;;;;;;;16.57;100.00;98410.03;5010313;28;20022;-85
2022/10/02 08:04:18;;;;;;;1999.90;999.90;;;;;;;17.81;92.18;98409.25;4996755;28;20281;-86
2022/10/02 08:06:46;;;;;;;1999.90;999.90;;;;;;;18.61;83.72;98405.44;5010708;28;20041;-82
2022/10/02 08:09:18;;;;;;;1999.90;999.90;;;;;;;19.57;78.83;98407.06;5026500;28;20032;-81
2022/10/02 08:11:52;;;;;;;1999.90;999.90;;;;;;;19.97;76.12;98412.81;5009926;28;20014;-76
2022/10/02 08:14:50;;;;;;;1999.90;999.90;;;;;;;22.12;66.06;98422.09;4998918;28;20089;-76
2022/10/02 08:17:26;;;;;;;1999.90;999.90;;;;;;;22.22;65.55;98418.75;4997849;28;20034;-77
2022/10/02 08:19:56;;;;;;;1999.90;999.90;;;;;;;23.57;59.64;98407.84;4986575;28;20561;-76
2022/10/02 08:22:28;;;;;;;1999.90;999.90;;;;;;;24.10;56.90;98418.03;4999139;28;20036;-74
2022/10/02 08:24:57;;;;;;;1999.90;999.90;;;;;;;22.87;60.41;98410.75;4999261;28;20044;-76
2022/10/02 08:28:09;;;;;;;1999.90;999.90;;;;;;;24.63;54.73;98418.13;4996155;28;20112;-76
2022/10/02 08:30:35;;;;;;;1999.90;999.90;;;;;;;23.85;55.84;98413.97;4998543;28;20034;-77
2022/10/02 08:33:01;;;;;;;1999.90;999.90;;;;;;;23.35;57.27;98409.38;4999507;28;20427;-76
2022/10/02 08:35:42;;;;;;;1999.90;999.90;;;;;;;23.70;57.56;98404.53;5000638;28;20068;-74
2022/10/02 08:38:32;;;;;;;1999.90;999.90;;;;;;;23.53;56.23;98404.19;4998844;28;20025;-76
2022/10/02 08:41:28;;;;;;;1999.90;999.90;;;;;;;23.89;55.81;98409.28;4995746;28;20061;-80
2022/10/02 08:44:12;;;;;;;1999.90;999.90;;;;;;;24.91;52.91;98410.97;4999824;28;20033;-76
2022/10/02 08:47:20;;;;;;;1999.90;999.90;;;;;;;24.39;53.45;98403.38;4998520;28;20041;-77
2022/10/02 08:50:00;;;;;;;1999.90;999.90;;;;;;;25.19;51.62;98406.94;4982144;28;20034;-77
2022/10/02 08:53:03;;;;;;;1999.90;999.90;;;;;;;25.17;51.30;98406.53;4989501;28;20611;-76
2022/10/02 08:55:53;;;;;;;1999.90;999.90;;;;;;;25.62;51.18;98411.09;4975793;28;20030;-74
2022/10/02 08:58:56;;;;;;;1999.90;999.90;;;;;;;25.74;50.44;98405.22;4997798;28;20373;-75
2022/10/02 09:01:40;;;;;;;1999.90;999.90;;;;;;;25.17;51.21;98395.31;4989944;28;20030;-75
2022/10/02 09:04:27;;;;;;;1999.90;999.90;;;;;;;24.99;52.54;98383.91;4986020;28;20545;-77
2022/10/02 09:07:16;;;;;;;1999.90;999.90;;;;;;;25.31;50.68;98373.88;4973428;28;20058;-76
2022/10/02 09:09:41;;;;;;;1999.90;999.90;;;;;;;24.59;54.11;98372.50;4988013;28;20042;-76
2022/10/02 09:12:43;;;;;;;1999.90;999.90;;;;;;;25.10;52.45;98361.63;4989300;28;20034;-76
2022/10/02 09:15:17;;;;;;;1999.90;999.90;;;;;;;25.19;50.99;98368.53;4987192;28;20280;-75
2022/10/02 09:18:00;;;;;;;1999.90;999.90;;;;;;;24.22;54.15;98363.91;4989220;28;20042;-75
2022/10/02 09:20:41;;;;;;;1999.90;999.90;;;;;;;24.66;54.47;98358.59;4989881;28;20062;-76
2022/10/02 09:23:36;;;;;;;1999.90;999.90;;;;;;;24.31;52.90;98337.31;4982369;28;20026;-75
2022/10/02 09:26:10;;;;;;;1999.90;999.90;;;;;;;22.77;58.61;98334.00;4993994;28;20037;-75
2022/10/02 09:28:50;;;;;;;1999.90;999.90;;;;;;;21.84;61.27;98324.63;4994002;28;20030;-75
2022/10/02 09:31:43;;;;;;;1999.90;999.90;;;;;;;20.89;65.92;98326.81;4987754;28;20026;-75
2022/10/02 09:34:36;;;;;;;1999.90;999.90;;;;;;;20.18;70.99;98319.88;4981535;28;20038;-76
2022/10/02 09:37:23;;;;;;;1999.90;999.90;;;;;;;19.75;74.66;98317.69;5000416;28;20390;-76
2022/10/02 09:40:04;;;;;;;1999.90;999.90;;;;;;;19.81;74.06;98326.59;5003590;28;20027;-74
2022/10/02 09:42:58;;;;;;;1999.90;999.90;;;;;;;19.82;74.15;98322.69;5007489;28;20036;-76
2022/10/02 09:45:23;;;;;;;1999.90;999.90;;;;;;;20.50;71.45;98322.84;5002102;28;20033;-75
2022/10/02 09:48:17;;;;;;;1999.90;999.90;;;;;;;20.32;72.11;98335.41;5006675;28;20022;-76
2022/10/02 09:51:12;;;;;;;1999.90;999.90;;;;;;;20.01;73.17;98334.03;4999051;28;20267;-76
2022/10/02 09:53:49;;;;;;;1999.90;999.90;;;;;;;19.76;74.95;98335.16;5003325;28;20453;-76
2022/10/02 09:56:27;;;;;;;1999.90;999.90;;;;;;;20.01;75.11;98334.03;5000260;28;20037;-76
2022/10/02 09:59:18;;;;;;;1999.90;999.90;;;;;;;20.53;73.50;98320.19;5001771;28;20326;-76
2022/10/02 10:02:21;;;;;;;1999.90;999.90;;;;;;;20.56;73.11;98318.66;4994305;28;20030;-76
2022/10/02 10:04:55;;;;;;;1999.90;999.90;;;;;;;20.45;73.52;98318.38;5006276;28;20018;-79
2022/10/02 10:07:39;;;;;;;1999.90;999.90;;;;;;;20.25;74.75;98314.53;5008542;28;20053;-82
2022/10/02 10:10:23;;;;;;;1999.90;999.90;;;;;;;19.58;77.54;98319.88;5009032;28;20058;-80
2022/10/02 10:13:16;;;;;;;1999.90;999.90;;;;;;;19.26;79.95;98308.44;5007538;28;20129;-85
2022/10/02 10:16:07;;;;;;;1999.90;999.90;;;;;;;19.21;80.79;98314.22;5018125;28;20033;-79
2022/10/02 10:19:12;;;;;;;1999.90;999.90;;;;;;;19.41;80.31;98309.81;5018851;28;20037;-84
2022/10/02 10:22:06;;;;;;;1999.90;999.90;;;;;;;19.56;79.35;98299.97;4996506;28;20396;-82
2022/10/02 10:24:59;;;;;;;1999.90;999.90;;;;;;;19.88;77.74;98315.75;5014908;28;20167;-83
2022/10/02 10:27:46;;;;;;;1999.90;999.90;;;;;;;20.20;77.47;98317.53;5014317;28;20498;-82
2022/10/02 10:30:48;;;;;;;1999.90;999.90;;;;;;;20.88;73.17;98306.53;5016950;28;20028;-82
2022/10/02 10:33:33;;;;;;;1999.90;999.90;;;;;;;21.64;69.42;98297.06;5014588;28;20049;-80
2022/10/02 10:35:58;;;;;;;1999.90;999.90;;;;;;;21.67;68.52;98301.91;5022132;28;20376;-82
2022/10/02 10:38:51;;;;;;;1999.90;999.90;;;;;;;22.35;65.75;98294.00;5022458;28;20080;-83
2022/10/02 10:41:43;;;;;;;1999.90;999.90;;;;;;;22.35;64.13;98289.25;5016723;28;20022;-83
2022/10/02 10:44:36;;;;;;;1999.90;999.90;;;;;;;21.88;66.78;98281.00;5018250;28;20111;-85
2022/10/02 10:47:17;;;;;;;1999.90;999.90;;;;;;;21.70;67.34;98279.72;5017446;28;20418;-84
2022/10/02 10:50:22;;;;;;;1999.90;999.90;;;;;;;21.53;67.10;98279.25;5029341;28;20018;-86
2022/10/02 10:53:27;;;;;;;1999.90;999.90;;;;;;;21.47;67.81;98278.72;5022028;28;20034;-86
2022/10/02 10:56:27;;;;;;;1999.90;999.90;;;;;;;21.04;69.72;98267.63;5023545;28;20053;-85
2022/10/02 10:59:21;;;;;;;1999.90;999.90;;;;;;;21.60;68.28;98279.44;5018845;28;20093;-84
2022/10/02 11:02:19;;;;;;;1999.90;999.90;;;;;;;21.40;69.49;98269.38;5009651;28;20034;-86
2022/10/02 11:04:57;;;;;;;1999.90;999.90;;;;;;;21.99;67.60;98258.94;5013993;28;20022;-85
2022/10/02 11:07:49;;;;;;;1999.90;999.90;;;;;;;21.81;68.71;98246.53;5009729;28;20048;-84
2022/10/02 11:10:53;;;;;;;1999.90;999.90;;;;;;;21.76;69.91;98253.22;5018680;28;20028;-83
2022/10/02 11:13:44;;;;;;;1999.90;999.90;;;;;;;21.84;70.40;98238.28;4996807;28;20093;-85
2022/10/02 11:16:18;;;;;;;1999.90;999.90;;;;;;;21.70;70.16;98245.50;5025190;28;20026;-86
2022/10/02 11:18:49;;;;;;;1999.90;999.90;;;;;;;22.18;68.81;98244.25;5021799;28;20081;-86
2022/10/02 11:21:47;;;;;;;1999.90;999.90;;;;;;;22.30;67.00;98250.50;5017488;28;20077;-84
2022/10/02 11:24:30;;;;;;;1999.90;999.90;;;;;;;21.77;69.32;98248.47;4985325;28;20182;-81
2022/10/02 11:27:10;;;;;;;1999.90;999.90;;;;;;;21.38;70.76;98257.81;5012305;28;20038;-83
2022/10/02 11:29:59;;;;;;;1999.90;999.90;;;;;;;21.20;72.81;98238.69;5006450;28;20077;-82
2022/10/02 11:32:44;;;;;;;1999.90;999.90;;;;;;;21.38;73.16;98241.09;4997261;28;20023;-83
2022/10/02 11:35:19;;;;;;;1999.90;999.90;;;;;;;21.29;73.20;98230.97;5015782;28;20098;-83
2022/10/02 11:37:55;;;;;;;1999.90;999.90;;;;;;;21.17;72.79;98221.91;5020876;28;20053;-83
2022/10/02 11:40:36;;;;;;;1999.90;999.90;;;;;;;21.12;73.15;98228.53;5014406;28;20038;-84
2022/10/02 11:43:29;;;;;;;1999.90;999.90;;;;;;;21.20;73.48;98222.00;4996309;28;20030;-82
2022/10/02 11:46:07;;;;;;;1999.90;999.90;;;;;;;20.95;74.47;98216.91;5002497;28;20406;-83
2022/10/02 11:48:52;;;;;;;1999.90;999.90;;;;;;;21.23;73.50;98215.72;5020644;28;20054;-84
2022/10/02 11:51:37;;;;;;;1999.90;999.90;;;;;;;21.36;73.21;98222.78;4993665;28;20023;-85
2022/10/02 11:54:09;;;;;;;1999.90;999.90;;;;;;;21.50;71.83;98219.53;5008130;28;20038;-83
2022/10/02 11:56:44;;;;;;;1999.90;999.90;;;;;;;21.61;71.82;98200.31;5023724;28;20057;-85
2022/10/02 11:59:26;;;;;;;1999.90;999.90;;;;;;;21.55;72.38;98199.00;5010472;28;20110;-84
2022/10/02 12:02:18;;;;;;;1999.90;999.90;;;;;;;21.53;72.48;98198.53;5023614;28;20018;-83
2022/10/02 12:05:15;;;;;;;1999.90;999.90;;;;;;;21.46;72.72;98203.94;5030013;28;20025;-85